createdAt,value
2019-03-08T00:00:51.131Z,4.10
2019-03-08T00:01:51.000Z,4.20
2019-03-08T00:02:50.869Z,4.60
2019-03-08T00:03:50.742Z,4.40
2019-03-08T00:04:50.605Z,5.30
2019-03-08T00:05:50.497Z,4.20
2019-03-08T00:06:50.337Z,4.10
2019-03-08T00:07:50.207Z,6.20
2019-03-08T00:08:50.076Z,5.20
2019-03-08T00:09:49.943Z,4.30
2019-03-08T00:10:49.812Z,6.20
2019-03-08T00:11:49.681Z,6.60
2019-03-08T00:12:49.552Z,4.70
2019-03-08T00:13:49.411Z,4.70
2019-03-08T00:14:49.280Z,4.40
2019-03-08T00:15:49.146Z,5.00
2019-03-08T00:16:49.017Z,6.70
2019-03-08T00:17:48.882Z,5.10
2019-03-08T00:18:49.160Z,5.80
2019-03-08T00:19:48.618Z,8.50
2019-03-08T00:20:48.487Z,10.30
2019-03-08T00:21:48.362Z,29.20
2019-03-08T00:22:48.223Z,6.80
2019-03-08T00:23:48.088Z,67.70
2019-03-08T00:24:47.961Z,142.80
2019-03-08T00:25:47.827Z,90.70
2019-03-08T00:26:47.691Z,21.80
2019-03-08T00:27:47.601Z,39.90
2019-03-08T00:28:47.427Z,15.90
2019-03-08T00:29:47.295Z,7.40
2019-03-08T00:30:47.163Z,58.90
2019-03-08T00:31:47.058Z,83.90
2019-03-08T00:32:46.902Z,170.50
2019-03-08T00:33:46.770Z,101.30
2019-03-08T00:34:46.637Z,43.80
2019-03-08T00:35:46.502Z,15.40
2019-03-08T00:36:46.370Z,31.90
2019-03-08T00:37:46.242Z,13.50
2019-03-08T00:38:46.107Z,11.40
2019-03-08T00:39:45.974Z,22.40
2019-03-08T00:40:45.843Z,55.40
2019-03-08T00:41:45.714Z,45.60
2019-03-08T00:42:45.578Z,41.50
2019-03-08T00:43:45.447Z,13.30
2019-03-08T00:44:45.315Z,10.70
2019-03-08T00:45:45.181Z,9.00
2019-03-08T00:46:45.051Z,8.60
2019-03-08T00:47:45.159Z,9.50
2019-03-08T00:48:44.790Z,10.40
2019-03-08T00:49:44.650Z,10.70
2019-03-08T00:50:44.519Z,8.60
2019-03-08T00:51:44.391Z,7.70
2019-03-08T00:52:44.257Z,8.50
2019-03-08T00:53:44.136Z,8.00
2019-03-08T00:54:43.992Z,9.70
2019-03-08T00:55:43.862Z,9.70
2019-03-08T00:56:43.729Z,9.50
2019-03-08T00:57:43.599Z,8.70
2019-03-08T00:58:43.464Z,9.20
2019-03-08T00:59:43.332Z,9.40
2019-03-08T01:00:43.204Z,8.40
2019-03-08T01:01:43.065Z,8.60
2019-03-08T01:02:42.935Z,8.90
2019-03-08T01:03:42.803Z,7.70
2019-03-08T01:04:42.671Z,7.90
2019-03-08T01:05:42.537Z,7.10
2019-03-08T01:06:42.406Z,6.50
2019-03-08T01:07:42.271Z,6.00
2019-03-08T01:08:42.157Z,5.20
2019-03-08T01:09:42.012Z,6.50
2019-03-08T01:10:41.877Z,4.90
2019-03-08T01:11:41.746Z,6.40
2019-03-08T01:12:41.613Z,4.50
2019-03-08T01:13:41.480Z,5.60
2019-03-08T01:14:41.345Z,7.40
2019-03-08T01:15:41.213Z,5.50
2019-03-08T01:16:41.165Z,4.60
2019-03-08T01:17:40.949Z,5.40
2019-03-08T01:18:40.815Z,4.10
2019-03-08T01:19:40.684Z,4.90
2019-03-08T01:20:40.553Z,5.20
2019-03-08T01:21:40.417Z,4.50
2019-03-08T01:22:40.287Z,4.50
2019-03-08T01:23:40.152Z,6.50
2019-03-08T01:24:40.020Z,6.50
2019-03-08T01:25:39.887Z,5.10
2019-03-08T01:26:39.756Z,5.10
2019-03-08T01:27:39.639Z,4.20
2019-03-08T01:28:39.490Z,5.30
2019-03-08T01:29:39.355Z,5.70
2019-03-08T01:30:39.229Z,4.50
2019-03-08T01:31:39.093Z,4.40
2019-03-08T01:32:38.957Z,5.30
2019-03-08T01:33:40.511Z,4.50
2019-03-08T01:34:38.695Z,5.40
2019-03-08T01:35:38.559Z,5.60
2019-03-08T01:36:38.427Z,4.30
2019-03-08T01:37:38.295Z,4.80
2019-03-08T01:38:38.161Z,4.70
2019-03-08T01:39:38.033Z,3.60
2019-03-08T01:40:37.898Z,4.90
2019-03-08T01:41:37.762Z,6.30
2019-03-08T01:42:37.630Z,6.00
2019-03-08T01:43:37.498Z,4.50
2019-03-08T01:44:37.368Z,5.10
2019-03-08T01:45:37.237Z,5.10
2019-03-08T01:46:37.099Z,4.30
2019-03-08T01:47:36.970Z,4.80
2019-03-08T01:48:36.834Z,4.40
2019-03-08T01:49:36.726Z,6.90
2019-03-08T01:50:36.586Z,6.20
2019-03-08T01:51:36.440Z,4.20
2019-03-08T01:52:36.305Z,4.90
2019-03-08T01:53:36.171Z,4.50
2019-03-08T01:54:36.038Z,4.10
2019-03-08T01:55:35.906Z,4.70
2019-03-08T01:56:35.777Z,4.70
2019-03-08T01:57:35.640Z,3.90
2019-03-08T01:58:35.508Z,4.40
2019-03-08T01:59:35.378Z,4.40
2019-03-08T02:00:35.243Z,5.10
2019-03-08T02:01:35.109Z,4.40
2019-03-08T02:02:34.981Z,4.30
2019-03-08T02:03:34.847Z,4.70
2019-03-08T02:04:34.712Z,5.00
2019-03-08T02:05:34.580Z,4.20
2019-03-08T02:06:34.449Z,4.30
2019-03-08T02:07:34.317Z,4.90
2019-03-08T02:08:34.183Z,3.80
2019-03-08T02:09:34.050Z,4.30
2019-03-08T02:10:33.916Z,3.50
2019-03-08T02:11:33.781Z,4.10
2019-03-08T02:12:33.653Z,4.30
2019-03-08T02:13:33.519Z,4.50
2019-03-08T02:14:33.386Z,4.60
2019-03-08T02:15:33.256Z,5.20
2019-03-08T02:16:33.120Z,4.50
2019-03-08T02:17:32.985Z,4.00
2019-03-08T02:18:32.854Z,3.90
2019-03-08T02:19:32.723Z,4.60
2019-03-08T02:20:32.588Z,4.70
2019-03-08T02:21:32.456Z,4.20
2019-03-08T02:22:32.321Z,2.80
2019-03-08T02:23:32.194Z,4.30
2019-03-08T02:24:32.062Z,3.40
2019-03-08T02:25:31.927Z,4.10
2019-03-08T02:26:31.792Z,3.80
2019-03-08T02:27:31.661Z,3.60
2019-03-08T02:28:31.527Z,4.40
2019-03-08T02:29:31.392Z,4.70
2019-03-08T02:30:31.260Z,4.60
2019-03-08T02:31:31.130Z,4.50
2019-03-08T02:32:30.997Z,5.90
2019-03-08T02:33:30.862Z,5.70
2019-03-08T02:34:30.733Z,6.30
2019-03-08T02:35:30.601Z,5.70
2019-03-08T02:36:30.466Z,6.50
2019-03-08T02:37:30.328Z,4.70
2019-03-08T02:38:30.198Z,5.60
2019-03-08T02:39:30.065Z,4.30
2019-03-08T02:40:29.933Z,5.20
2019-03-08T02:41:29.799Z,6.80
2019-03-08T02:42:29.667Z,5.20
2019-03-08T02:43:29.531Z,5.60
2019-03-08T02:44:29.400Z,5.30
2019-03-08T02:45:29.265Z,5.50
2019-03-08T02:46:29.134Z,4.10
2019-03-08T02:47:28.999Z,3.70
2019-03-08T02:48:28.867Z,5.40
2019-03-08T02:49:28.730Z,4.30
2019-03-08T02:50:28.599Z,4.90
2019-03-08T02:51:28.466Z,4.20
2019-03-08T02:52:28.333Z,4.50
2019-03-08T02:53:28.198Z,4.10
2019-03-08T02:54:28.065Z,3.50
2019-03-08T02:55:27.934Z,4.80
2019-03-08T02:56:27.818Z,3.00
2019-03-08T02:57:27.668Z,4.00
2019-03-08T02:58:27.531Z,3.60
2019-03-08T02:59:27.399Z,4.10
2019-03-08T03:00:27.265Z,2.40
2019-03-08T03:01:27.130Z,3.90
2019-03-08T03:02:26.998Z,3.50
2019-03-08T03:03:26.866Z,3.10
2019-03-08T03:04:26.736Z,4.00
2019-03-08T03:05:26.600Z,3.90
2019-03-08T03:06:26.466Z,3.60
2019-03-08T03:07:26.329Z,3.70
2019-03-08T03:08:26.199Z,3.30
2019-03-08T03:09:26.064Z,3.20
2019-03-08T03:10:25.932Z,3.50
2019-03-08T03:11:25.795Z,3.90
2019-03-08T03:12:25.669Z,4.20
2019-03-08T03:13:25.533Z,4.30
2019-03-08T03:14:25.400Z,3.10
2019-03-08T03:15:25.262Z,3.50
2019-03-08T03:16:25.130Z,3.70
2019-03-08T03:17:24.996Z,2.90
2019-03-08T03:18:24.862Z,3.70
2019-03-08T03:19:24.732Z,4.30
2019-03-08T03:20:24.595Z,3.30
2019-03-08T03:21:24.463Z,3.90
2019-03-08T03:22:24.329Z,3.10
2019-03-08T03:23:24.197Z,3.70
2019-03-08T03:24:24.062Z,3.60
2019-03-08T03:25:23.929Z,4.10
2019-03-08T03:26:23.795Z,3.40
2019-03-08T03:27:23.662Z,3.20
2019-03-08T03:28:23.530Z,3.30
2019-03-08T03:29:23.395Z,3.80
2019-03-08T03:30:23.270Z,3.20
2019-03-08T03:31:23.130Z,3.40
2019-03-08T03:32:22.999Z,3.00
2019-03-08T03:33:22.862Z,3.20
2019-03-08T03:34:22.732Z,3.20
2019-03-08T03:35:22.597Z,3.70
2019-03-08T03:36:22.461Z,3.60
2019-03-08T03:37:22.328Z,3.50
2019-03-08T03:38:22.197Z,3.10
2019-03-08T03:39:22.063Z,4.40
2019-03-08T03:40:21.930Z,3.10
2019-03-08T03:41:21.794Z,2.90
2019-03-08T03:42:21.663Z,3.80
2019-03-08T03:43:21.534Z,3.40
2019-03-08T03:44:21.396Z,2.60
2019-03-08T03:45:21.268Z,3.60
2019-03-08T03:46:21.131Z,3.90
2019-03-08T03:47:20.995Z,3.50
2019-03-08T03:48:20.863Z,2.90
2019-03-08T03:49:20.731Z,3.20
2019-03-08T03:50:20.593Z,3.20
2019-03-08T03:51:20.465Z,2.90
2019-03-08T03:52:20.328Z,2.60
2019-03-08T03:53:20.195Z,3.40
2019-03-08T03:54:20.059Z,3.30
2019-03-08T03:55:19.929Z,3.10
2019-03-08T03:56:19.792Z,3.70
2019-03-08T03:57:19.660Z,3.00
2019-03-08T03:58:19.526Z,2.90
2019-03-08T03:59:19.394Z,3.70
2019-03-08T04:00:19.262Z,3.40
2019-03-08T04:01:19.126Z,4.90
2019-03-08T04:02:18.995Z,3.40
2019-03-08T04:03:18.865Z,3.70
2019-03-08T04:04:18.726Z,3.30
2019-03-08T04:05:18.594Z,4.10
2019-03-08T04:06:18.460Z,3.10
2019-03-08T04:07:18.340Z,2.70
2019-03-08T04:08:18.194Z,4.70
2019-03-08T04:09:18.061Z,3.10
2019-03-08T04:10:17.926Z,3.10
2019-03-08T04:11:17.791Z,4.30
2019-03-08T04:12:17.660Z,3.40
2019-03-08T04:13:17.531Z,3.50
2019-03-08T04:14:17.391Z,4.30
2019-03-08T04:15:17.261Z,5.80
2019-03-08T04:16:17.129Z,5.20
2019-03-08T04:17:16.989Z,5.00
2019-03-08T04:18:16.858Z,4.50
2019-03-08T04:19:16.724Z,5.70
2019-03-08T04:20:16.597Z,5.60
2019-03-08T04:21:16.458Z,5.20
2019-03-08T04:22:16.321Z,3.70
2019-03-08T04:23:16.191Z,4.70
2019-03-08T04:24:16.055Z,4.90
2019-03-08T04:25:15.921Z,4.80
2019-03-08T04:26:15.787Z,5.00
2019-03-08T04:27:15.653Z,4.90
2019-03-08T04:28:15.525Z,4.30
2019-03-08T04:29:15.386Z,4.20
2019-03-08T04:30:15.252Z,4.20
2019-03-08T04:31:15.125Z,6.30
2019-03-08T04:32:14.987Z,8.60
2019-03-08T04:33:14.851Z,7.30
2019-03-08T04:34:14.719Z,6.60
2019-03-08T04:35:14.585Z,3.40
2019-03-08T04:36:14.454Z,4.50
2019-03-08T04:37:14.317Z,4.80
2019-03-08T04:38:14.184Z,6.30
2019-03-08T04:39:14.050Z,3.60
2019-03-08T04:40:13.918Z,3.40
2019-03-08T04:41:13.782Z,4.40
2019-03-08T04:42:13.649Z,4.30
2019-03-08T04:43:13.521Z,4.30
2019-03-08T04:44:13.382Z,3.30
2019-03-08T04:45:13.246Z,4.90
2019-03-08T04:46:13.117Z,3.10
2019-03-08T04:47:12.979Z,3.40
2019-03-08T04:48:12.848Z,2.70
2019-03-08T04:49:12.713Z,3.10
2019-03-08T04:50:12.579Z,3.50
2019-03-08T04:51:12.445Z,2.50
2019-03-08T04:52:12.311Z,3.40
2019-03-08T04:53:12.175Z,3.10
2019-03-08T04:54:12.044Z,2.90
2019-03-08T04:55:11.909Z,3.40
2019-03-08T04:56:11.781Z,3.00
2019-03-08T04:57:11.640Z,3.80
2019-03-08T04:58:11.525Z,3.30
2019-03-08T04:59:11.371Z,2.80
2019-03-08T05:00:11.238Z,3.50
2019-03-08T05:01:11.108Z,3.90
2019-03-08T05:02:10.974Z,3.10
2019-03-08T05:03:10.838Z,3.60
2019-03-08T05:04:10.941Z,2.80
2019-03-08T05:05:10.570Z,2.20
2019-03-08T05:06:10.436Z,4.60
2019-03-08T05:07:10.304Z,3.10
2019-03-08T05:08:10.168Z,3.80
2019-03-08T05:09:10.035Z,3.30
2019-03-08T05:10:09.898Z,2.40
2019-03-08T05:11:09.764Z,3.50
2019-03-08T05:12:09.639Z,3.20
2019-03-08T05:13:09.500Z,3.50
2019-03-08T05:14:09.364Z,3.60
2019-03-08T05:15:09.231Z,2.70
2019-03-08T05:16:09.134Z,3.00
2019-03-08T05:17:08.960Z,2.80
2019-03-08T05:18:08.833Z,3.20
2019-03-08T05:19:08.695Z,2.90
2019-03-08T05:20:08.562Z,2.90
2019-03-08T05:21:08.427Z,2.80
2019-03-08T05:22:08.293Z,4.50
2019-03-08T05:23:08.161Z,2.70
2019-03-08T05:24:08.030Z,2.70
2019-03-08T05:25:07.894Z,2.60
2019-03-08T05:26:07.758Z,2.30
2019-03-08T05:27:07.625Z,2.70
2019-03-08T05:28:07.491Z,3.50
2019-03-08T05:29:07.355Z,3.50
2019-03-08T05:30:07.225Z,3.90
2019-03-08T05:31:07.091Z,2.50
2019-03-08T05:32:06.957Z,4.30
2019-03-08T05:33:06.821Z,2.70
2019-03-08T05:34:06.685Z,2.40
2019-03-08T05:35:06.571Z,3.20
2019-03-08T05:36:06.417Z,3.00
2019-03-08T05:37:06.283Z,3.10
2019-03-08T05:38:06.150Z,3.10
2019-03-08T05:39:06.016Z,3.40
2019-03-08T05:40:05.882Z,3.40
2019-03-08T05:41:05.752Z,2.80
2019-03-08T05:42:05.624Z,3.80
2019-03-08T05:43:05.481Z,4.60
2019-03-08T05:44:05.345Z,3.40
2019-03-08T05:45:07.045Z,4.10
2019-03-08T05:46:05.078Z,2.70
2019-03-08T05:47:04.952Z,2.70
2019-03-08T05:48:04.811Z,2.70
2019-03-08T05:49:04.676Z,3.20
2019-03-08T05:50:04.543Z,4.20
2019-03-08T05:51:04.407Z,3.50
2019-03-08T05:52:04.274Z,2.80
2019-03-08T05:53:04.146Z,3.40
2019-03-08T05:54:04.012Z,2.80
2019-03-08T05:55:03.878Z,2.70
2019-03-08T05:56:03.738Z,2.60
2019-03-08T05:57:03.604Z,2.60
2019-03-08T05:58:03.472Z,3.00
2019-03-08T05:59:03.336Z,3.20
2019-03-08T06:00:03.210Z,4.20
2019-03-08T06:01:03.079Z,3.10
2019-03-08T06:02:02.931Z,3.40
2019-03-08T06:03:02.800Z,3.90
2019-03-08T06:04:02.686Z,2.60
2019-03-08T06:05:02.548Z,3.70
2019-03-08T06:06:02.400Z,2.70
2019-03-08T06:07:03.242Z,2.70
2019-03-08T06:08:02.128Z,3.40
2019-03-08T06:09:01.993Z,2.90
2019-03-08T06:10:01.873Z,3.40
2019-03-08T06:11:01.728Z,2.50
2019-03-08T06:12:01.597Z,2.30
2019-03-08T06:13:01.459Z,3.90
2019-03-08T06:14:01.328Z,3.00
2019-03-08T06:15:01.190Z,2.80
2019-03-08T06:16:01.062Z,3.80
2019-03-08T06:17:00.930Z,3.90
2019-03-08T06:18:00.790Z,2.00
2019-03-08T06:19:00.657Z,2.60
2019-03-08T06:20:00.523Z,4.60
2019-03-08T06:21:00.388Z,2.60
2019-03-08T06:22:00.254Z,2.50
2019-03-08T06:23:00.126Z,3.30
2019-03-08T06:23:59.990Z,2.50
2019-03-08T06:24:59.853Z,2.40
2019-03-08T06:25:59.717Z,2.90
2019-03-08T06:26:59.587Z,3.10
2019-03-08T06:27:59.449Z,2.20
2019-03-08T06:28:59.315Z,2.50
2019-03-08T06:29:59.183Z,2.70
2019-03-08T06:30:59.047Z,3.80
2019-03-08T06:31:58.916Z,2.40
2019-03-08T06:32:58.779Z,2.80
2019-03-08T06:33:58.645Z,2.70
2019-03-08T06:34:58.633Z,2.80
2019-03-08T06:35:59.246Z,4.70
2019-03-08T06:36:58.246Z,2.50
2019-03-08T06:37:58.113Z,2.50
2019-03-08T06:38:57.979Z,2.90
2019-03-08T06:39:59.385Z,3.10
2019-03-08T06:40:57.707Z,2.90
2019-03-08T06:41:57.575Z,2.20
2019-03-08T06:42:57.445Z,2.30
2019-03-08T06:43:57.308Z,2.70
2019-03-08T06:44:57.209Z,3.00
2019-03-08T06:45:57.040Z,2.20
2019-03-08T06:46:56.906Z,3.20
2019-03-08T06:47:56.771Z,2.90
2019-03-08T06:48:56.637Z,2.70
2019-03-08T06:49:56.503Z,2.90
2019-03-08T06:50:56.367Z,2.70
2019-03-08T06:51:56.238Z,3.90
2019-03-08T06:52:56.101Z,2.30
2019-03-08T06:53:55.967Z,2.80
2019-03-08T06:54:55.834Z,2.80
2019-03-08T06:55:55.699Z,3.20
2019-03-08T06:56:55.569Z,3.10
2019-03-08T06:57:55.432Z,3.80
2019-03-08T06:58:55.301Z,3.20
2019-03-08T06:59:55.172Z,2.80
2019-03-08T07:00:55.030Z,3.80
2019-03-08T07:01:54.896Z,2.80
2019-03-08T07:02:54.765Z,3.20
2019-03-08T07:03:54.630Z,3.10
2019-03-08T07:04:55.256Z,2.90
2019-03-08T07:05:54.361Z,2.30
2019-03-08T07:06:54.229Z,2.40
2019-03-08T07:07:54.093Z,2.10
2019-03-08T07:08:53.959Z,2.90
2019-03-08T07:09:53.829Z,2.60
2019-03-08T07:10:53.697Z,2.60
2019-03-08T07:11:53.561Z,2.50
2019-03-08T07:13:02.457Z,2.20
2019-03-08T07:13:53.291Z,2.50
2019-03-08T07:14:53.156Z,2.30
2019-03-08T07:15:53.028Z,3.20
2019-03-08T07:16:52.892Z,2.70
2019-03-08T07:17:52.756Z,2.70
2019-03-08T07:18:52.621Z,2.60
2019-03-08T07:19:52.489Z,2.90
2019-03-08T07:20:52.352Z,1.30
2019-03-08T07:21:52.218Z,2.30
2019-03-08T07:22:52.104Z,2.60
2019-03-08T07:23:51.953Z,2.40
2019-03-08T07:24:51.818Z,1.70
2019-03-08T07:25:54.396Z,1.40
2019-03-08T07:26:51.561Z,1.50
2019-03-08T07:27:51.425Z,1.90
2019-03-08T07:28:51.292Z,1.60
2019-03-08T07:29:51.156Z,2.40
2019-03-08T07:30:57.679Z,2.20
2019-03-08T07:31:50.890Z,1.90
2019-03-08T07:32:50.757Z,1.60
2019-03-08T07:33:53.499Z,2.00
2019-03-08T07:34:50.497Z,2.20
2019-03-08T07:35:50.387Z,1.80
2019-03-08T07:36:50.230Z,2.10
2019-03-08T07:37:50.098Z,2.00
2019-03-08T07:38:49.967Z,1.90
2019-03-08T07:39:49.835Z,2.30
2019-03-08T07:40:49.704Z,2.20
2019-03-08T07:41:49.575Z,1.80
2019-03-08T07:42:49.439Z,2.90
2019-03-08T07:43:49.326Z,2.10
2019-03-08T07:44:49.177Z,2.10
2019-03-08T07:45:49.045Z,1.80
2019-03-08T07:46:48.916Z,1.70
2019-03-08T07:47:48.789Z,2.70
2019-03-08T07:48:48.652Z,2.30
2019-03-08T07:49:48.523Z,2.00
2019-03-08T07:50:48.393Z,1.90
2019-03-08T07:51:48.260Z,1.80
2019-03-08T07:52:48.130Z,1.60
2019-03-08T07:53:48.002Z,2.10
2019-03-08T07:54:52.950Z,1.90
2019-03-08T07:55:47.739Z,1.90
2019-03-08T07:56:47.607Z,2.00
2019-03-08T07:57:47.479Z,1.90
2019-03-08T07:58:47.346Z,2.30
2019-03-08T07:59:53.547Z,1.70
2019-03-08T08:00:47.090Z,1.70
2019-03-08T08:01:46.958Z,1.90
2019-03-08T08:02:48.566Z,1.80
2019-03-08T08:03:46.700Z,2.00
2019-03-08T08:04:46.570Z,1.80
2019-03-08T08:05:46.440Z,2.40
2019-03-08T08:06:46.311Z,2.20
2019-03-08T08:07:46.181Z,1.70
2019-03-08T08:08:51.524Z,1.80
2019-03-08T08:09:45.921Z,2.00
2019-03-08T08:10:47.595Z,1.70
2019-03-08T08:11:45.664Z,1.90
2019-03-08T08:12:45.534Z,2.30
2019-03-08T08:13:45.406Z,2.00
2019-03-08T08:14:45.276Z,2.30
2019-03-08T08:15:45.552Z,1.60
2019-03-08T08:16:45.015Z,1.80
2019-03-08T08:17:44.891Z,1.90
2019-03-08T08:18:44.757Z,2.50
2019-03-08T08:19:44.637Z,1.70
2019-03-08T08:20:44.501Z,2.00
2019-03-08T08:21:44.370Z,2.20
2019-03-08T08:22:44.244Z,3.40
2019-03-08T08:23:44.114Z,2.70
2019-03-08T08:24:43.981Z,2.20
2019-03-08T08:25:43.852Z,2.80
2019-03-08T08:26:43.724Z,1.90
2019-03-08T08:27:43.595Z,1.70
2019-03-08T08:28:49.719Z,2.00
2019-03-08T08:29:43.338Z,2.30
2019-03-08T08:30:43.212Z,2.20
2019-03-08T08:31:43.329Z,2.80
2019-03-08T08:32:42.978Z,2.10
2019-03-08T08:33:42.831Z,2.00
2019-03-08T08:34:42.724Z,2.30
2019-03-08T08:35:42.593Z,2.40
2019-03-08T08:36:42.450Z,1.90
2019-03-08T08:37:42.327Z,2.60
2019-03-08T08:38:42.201Z,1.70
2019-03-08T08:39:42.065Z,1.90
2019-03-08T08:40:41.941Z,3.00
2019-03-08T08:41:41.813Z,2.70
2019-03-08T08:42:41.679Z,2.10
2019-03-08T08:43:41.538Z,2.00
2019-03-08T08:44:41.444Z,3.20
2019-03-08T08:45:41.307Z,2.80
2019-03-08T08:46:41.151Z,2.70
2019-03-08T08:47:41.028Z,2.90
2019-03-08T08:48:40.906Z,2.60
2019-03-08T08:49:40.762Z,2.40
2019-03-08T08:50:40.637Z,2.90
2019-03-08T08:51:40.507Z,1.90
2019-03-08T08:52:40.377Z,2.40
2019-03-08T08:53:40.254Z,2.80
2019-03-08T08:54:40.125Z,2.20
2019-03-08T08:55:39.995Z,2.20
2019-03-08T08:56:39.863Z,2.20
2019-03-08T08:57:39.734Z,2.30
2019-03-08T08:58:39.607Z,2.50
2019-03-08T08:59:39.479Z,1.90
2019-03-08T09:00:39.350Z,2.30
2019-03-08T09:01:39.222Z,2.40
2019-03-08T09:02:39.097Z,2.80
2019-03-08T09:03:38.970Z,2.20
2019-03-08T09:04:38.850Z,2.90
2019-03-08T09:05:38.711Z,2.90
2019-03-08T09:06:38.583Z,2.30
2019-03-08T09:07:38.452Z,3.10
2019-03-08T09:08:38.323Z,2.40
2019-03-08T09:09:38.202Z,2.40
2019-03-08T09:10:38.075Z,2.50
2019-03-08T09:11:45.897Z,2.70
2019-03-08T09:12:37.815Z,2.60
2019-03-08T09:13:37.685Z,2.80
2019-03-08T09:14:37.567Z,2.30
2019-03-08T09:15:37.451Z,2.20
2019-03-08T09:16:37.303Z,3.50
2019-03-08T09:17:37.179Z,2.10
2019-03-08T09:18:37.050Z,2.10
2019-03-08T09:19:36.921Z,3.70
2019-03-08T09:20:36.796Z,2.20
2019-03-08T09:21:36.667Z,2.90
2019-03-08T09:22:36.539Z,2.20
2019-03-08T09:23:36.415Z,2.00
2019-03-08T09:24:36.287Z,2.80
2019-03-08T09:25:36.160Z,2.60
2019-03-08T09:26:36.031Z,2.20
2019-03-08T09:27:35.907Z,2.10
2019-03-08T09:28:35.778Z,1.70
2019-03-08T09:29:41.303Z,2.00
2019-03-08T09:30:35.527Z,1.90
2019-03-08T09:31:35.399Z,2.10
2019-03-08T09:32:35.273Z,3.70
2019-03-08T09:33:35.145Z,3.20
2019-03-08T09:34:35.018Z,2.40
2019-03-08T09:35:34.899Z,3.10
2019-03-08T09:36:34.766Z,3.00
2019-03-08T09:37:34.640Z,2.50
2019-03-08T09:38:34.518Z,1.40
2019-03-08T09:39:34.387Z,3.50
2019-03-08T09:40:34.260Z,1.80
2019-03-08T09:41:34.138Z,1.90
2019-03-08T09:42:34.007Z,2.60
2019-03-08T09:43:33.887Z,2.60
2019-03-08T09:44:33.757Z,1.90
2019-03-08T09:45:33.675Z,2.10
2019-03-08T09:46:33.506Z,2.30
2019-03-08T09:47:33.379Z,1.80
2019-03-08T09:48:33.254Z,1.70
2019-03-08T09:49:33.136Z,1.80
2019-03-08T09:50:33.013Z,2.10
2019-03-08T09:51:32.877Z,2.70
2019-03-08T09:52:32.760Z,3.80
2019-03-08T09:53:32.625Z,1.90
2019-03-08T09:54:32.511Z,3.00
2019-03-08T09:55:34.090Z,2.00
2019-03-08T09:56:32.249Z,2.10
2019-03-08T09:57:32.132Z,2.30
2019-03-08T09:58:32.001Z,2.10
2019-03-08T09:59:31.878Z,1.70
2019-03-08T10:00:31.751Z,2.30
2019-03-08T10:01:31.623Z,1.90
2019-03-08T10:02:31.499Z,1.80
2019-03-08T10:03:31.373Z,2.30
2019-03-08T10:04:31.246Z,1.50
2019-03-08T10:05:31.126Z,1.70
2019-03-08T10:06:30.999Z,2.60
2019-03-08T10:07:30.872Z,1.90
2019-03-08T10:08:30.751Z,2.20
2019-03-08T10:09:30.623Z,2.20
2019-03-08T10:10:30.496Z,2.00
2019-03-08T10:11:30.372Z,1.60
2019-03-08T10:12:30.250Z,2.10
2019-03-08T10:13:30.142Z,1.90
2019-03-08T10:14:30.013Z,1.90
2019-03-08T10:15:29.871Z,2.00
2019-03-08T10:16:29.753Z,2.40
2019-03-08T10:17:29.621Z,1.80
2019-03-08T10:18:29.495Z,1.60
2019-03-08T10:19:29.370Z,1.60
2019-03-08T10:20:29.246Z,1.90
2019-03-08T10:21:29.121Z,1.70
2019-03-08T10:22:28.999Z,1.50
2019-03-08T10:23:28.870Z,1.60
2019-03-08T10:24:28.743Z,2.30
2019-03-08T10:25:28.620Z,1.60
2019-03-08T10:26:28.496Z,1.80
2019-03-08T10:27:37.581Z,2.00
2019-03-08T10:28:28.242Z,1.70
2019-03-08T10:29:28.117Z,2.30
2019-03-08T10:30:27.995Z,2.60
2019-03-08T10:31:27.869Z,2.40
2019-03-08T10:32:36.886Z,1.90
2019-03-08T10:33:27.615Z,1.80
2019-03-08T10:34:27.490Z,1.60
2019-03-08T10:35:27.366Z,2.40
2019-03-08T10:36:27.238Z,2.00
2019-03-08T10:37:27.113Z,1.70
2019-03-08T10:38:26.992Z,1.80
2019-03-08T10:39:26.865Z,2.00
2019-03-08T10:40:26.738Z,1.90
2019-03-08T10:41:26.621Z,1.80
2019-03-08T10:42:26.489Z,1.70
2019-03-08T10:43:26.365Z,3.40
2019-03-08T10:44:26.236Z,1.70
2019-03-08T10:45:26.115Z,2.60
2019-03-08T10:46:26.015Z,2.00
2019-03-08T10:47:25.865Z,2.30
2019-03-08T10:48:25.747Z,1.60
2019-03-08T10:49:25.615Z,2.20
2019-03-08T10:50:25.486Z,1.50
2019-03-08T10:51:25.362Z,1.90
2019-03-08T10:52:25.233Z,1.80
2019-03-08T10:53:25.110Z,1.50
2019-03-08T10:54:24.988Z,1.40
2019-03-08T10:55:24.860Z,1.50
2019-03-08T10:56:24.741Z,1.40
2019-03-08T10:57:25.402Z,1.50
2019-03-08T10:58:24.486Z,2.20
2019-03-08T10:59:24.364Z,1.60
2019-03-08T11:00:24.243Z,1.70
2019-03-08T11:01:24.118Z,2.20
2019-03-08T11:02:24.010Z,2.20
2019-03-08T11:03:23.864Z,2.40
2019-03-08T11:04:23.737Z,1.90
2019-03-08T11:05:23.614Z,1.70
2019-03-08T11:06:23.487Z,2.00
2019-03-08T11:07:23.370Z,1.90
2019-03-08T11:08:29.506Z,1.80
2019-03-08T11:09:23.118Z,1.40
2019-03-08T11:10:22.994Z,2.30
2019-03-08T11:11:22.870Z,1.90
2019-03-08T11:12:22.744Z,2.00
2019-03-08T11:13:22.621Z,2.50
2019-03-08T11:14:22.514Z,1.70
2019-03-08T11:15:24.685Z,2.70
2019-03-08T11:16:22.248Z,1.80
2019-03-08T11:17:22.123Z,2.00
2019-03-08T11:18:22.000Z,2.10
2019-03-08T11:19:21.878Z,2.50
2019-03-08T11:20:21.752Z,2.20
2019-03-08T11:21:21.629Z,1.80
2019-03-08T11:22:21.521Z,1.70
2019-03-08T11:23:21.380Z,2.00
2019-03-08T11:24:21.255Z,1.90
2019-03-08T11:25:21.178Z,2.50
2019-03-08T11:26:21.379Z,1.50
2019-03-08T11:27:20.885Z,2.10
2019-03-08T11:28:21.402Z,1.70
2019-03-08T11:29:20.634Z,1.60
2019-03-08T11:30:21.856Z,2.00
2019-03-08T11:31:20.387Z,2.30
2019-03-08T11:32:23.292Z,2.00
2019-03-08T11:33:20.146Z,2.50
2019-03-08T11:34:20.055Z,2.20
2019-03-08T11:35:19.896Z,5.10
2019-03-08T11:36:19.778Z,5.10
2019-03-08T11:37:19.638Z,2.10
2019-03-08T11:38:19.516Z,2.10
2019-03-08T11:39:19.414Z,2.40
2019-03-08T11:40:19.272Z,2.20
2019-03-08T11:41:19.180Z,1.80
2019-03-08T11:42:19.025Z,2.00
2019-03-08T11:43:18.910Z,1.90
2019-03-08T11:44:18.772Z,2.40
2019-03-08T11:45:18.665Z,1.80
2019-03-08T11:46:18.526Z,2.20
2019-03-08T11:47:18.403Z,2.40
2019-03-08T11:48:18.276Z,2.50
2019-03-08T11:49:18.162Z,2.30
2019-03-08T11:50:18.089Z,2.60
2019-03-08T11:51:17.906Z,2.20
2019-03-08T11:52:17.787Z,2.50
2019-03-08T11:53:17.655Z,2.60
2019-03-08T11:54:17.536Z,2.20
2019-03-08T11:55:17.417Z,2.00
2019-03-08T11:56:17.286Z,2.60
2019-03-08T11:57:17.165Z,3.00
2019-03-08T11:58:17.037Z,3.90
2019-03-08T11:59:16.912Z,2.60
2019-03-08T12:00:16.787Z,2.80
2019-03-08T12:01:16.664Z,3.00
2019-03-08T12:02:16.548Z,3.30
2019-03-08T12:03:16.417Z,2.30
2019-03-08T12:04:16.294Z,2.70
2019-03-08T12:05:16.167Z,3.30
2019-03-08T12:06:16.045Z,2.90
2019-03-08T12:07:15.932Z,2.20
2019-03-08T12:08:15.794Z,2.50
2019-03-08T12:09:15.673Z,3.80
2019-03-08T12:10:15.550Z,2.50
2019-03-08T12:11:16.541Z,2.60
2019-03-08T12:12:15.301Z,3.10
2019-03-08T12:13:15.177Z,2.70
2019-03-08T12:14:15.059Z,3.00
2019-03-08T12:15:14.932Z,3.00
2019-03-08T12:16:14.809Z,2.60
2019-03-08T12:17:14.678Z,2.90
2019-03-08T12:18:14.559Z,3.50
2019-03-08T12:19:14.431Z,3.00
2019-03-08T12:20:14.307Z,2.70
2019-03-08T12:21:14.180Z,3.20
2019-03-08T12:22:14.058Z,2.90
2019-03-08T12:23:13.935Z,2.70
2019-03-08T12:24:13.814Z,2.30
2019-03-08T12:25:13.688Z,4.00
2019-03-08T12:26:13.561Z,2.90
2019-03-08T12:27:13.436Z,2.60
2019-03-08T12:28:13.319Z,3.10
2019-03-08T12:29:13.188Z,2.80
2019-03-08T12:30:13.067Z,2.50
2019-03-08T12:31:12.947Z,2.50
2019-03-08T12:32:12.844Z,2.60
2019-03-08T12:33:12.712Z,3.60
2019-03-08T12:34:12.569Z,2.70
2019-03-08T12:35:12.446Z,3.80
2019-03-08T12:36:12.324Z,2.30
2019-03-08T12:37:12.236Z,3.20
2019-03-08T12:38:12.078Z,3.30
2019-03-08T12:39:11.953Z,3.10
2019-03-08T12:40:11.827Z,2.90
2019-03-08T12:41:11.702Z,3.40
2019-03-08T12:42:11.577Z,2.60
2019-03-08T12:43:11.452Z,3.10
2019-03-08T12:44:11.332Z,2.80
2019-03-08T12:45:11.206Z,3.70
2019-03-08T12:46:11.085Z,3.60
2019-03-08T12:47:10.954Z,3.50
2019-03-08T12:48:10.856Z,4.40
2019-03-08T12:49:10.743Z,3.90
2019-03-08T12:50:10.596Z,2.90
2019-03-08T12:51:10.508Z,2.90
2019-03-08T12:52:10.339Z,2.90
2019-03-08T12:53:10.211Z,3.20
2019-03-08T12:54:10.089Z,3.20
2019-03-08T12:55:09.958Z,3.00
2019-03-08T12:56:09.844Z,2.70
2019-03-08T12:57:09.710Z,3.60
2019-03-08T12:58:09.586Z,2.60
2019-03-08T12:59:09.463Z,3.00
2019-03-08T13:00:09.339Z,3.40
2019-03-08T13:01:09.215Z,3.00
2019-03-08T13:02:09.092Z,3.00
2019-03-08T13:03:08.971Z,3.10
2019-03-08T13:04:08.843Z,3.70
2019-03-08T13:05:08.717Z,2.50
2019-03-08T13:06:08.594Z,2.50
2019-03-08T13:07:08.473Z,2.70
2019-03-08T13:08:08.351Z,3.30
2019-03-08T13:09:08.226Z,3.20
2019-03-08T13:10:08.098Z,2.40
2019-03-08T13:11:07.974Z,3.60
2019-03-08T13:12:07.859Z,2.40
2019-03-08T13:13:07.741Z,3.90
2019-03-08T13:14:07.618Z,2.90
2019-03-08T13:15:07.488Z,2.80
2019-03-08T13:16:07.356Z,3.50